createdAt,value
2023-01-19T00:01:10.052Z,9.97
2023-01-19T00:03:38.439Z,9.97
2023-01-19T00:06:07.773Z,9.47
2023-01-19T00:08:36.755Z,9.70
2023-01-19T00:11:05.346Z,10.40
2023-01-19T00:13:34.550Z,9.90
2023-01-19T00:16:04.530Z,9.57
2023-01-19T00:18:32.761Z,9.30
2023-01-19T00:21:01.212Z,9.63
2023-01-19T00:23:29.665Z,9.90
2023-01-19T00:25:59.603Z,10.17
2023-01-19T00:28:27.953Z,9.37
2023-01-19T00:30:56.627Z,9.60
2023-01-19T00:33:26.302Z,9.33
2023-01-19T00:35:56.517Z,10.33
2023-01-19T00:38:24.771Z,9.37
2023-01-19T00:40:52.994Z,10.13
2023-01-19T00:43:21.606Z,9.87
2023-01-19T00:45:50.170Z,10.33
2023-01-19T00:48:18.414Z,9.43
2023-01-19T00:50:49.315Z,9.00
2023-01-19T00:53:17.822Z,9.17
2023-01-19T00:55:46.199Z,9.33
2023-01-19T00:58:14.762Z,9.90
2023-01-19T01:00:43.130Z,9.53
2023-01-19T01:03:11.617Z,9.33
2023-01-19T01:05:42.380Z,10.17
2023-01-19T01:08:12.259Z,9.23
2023-01-19T01:10:40.611Z,9.93
2023-01-19T01:13:21.029Z,8.87
2023-01-19T01:15:52.047Z,8.80
2023-01-19T01:18:21.781Z,9.70
2023-01-19T01:20:50.328Z,8.97
2023-01-19T01:23:22.780Z,9.27
2023-01-19T01:25:51.304Z,10.10
2023-01-19T01:28:19.578Z,8.87
2023-01-19T01:30:48.066Z,9.00
2023-01-19T01:33:40.562Z,9.00
2023-01-19T01:36:05.261Z,9.23
2023-01-19T01:38:35.319Z,9.80
2023-01-19T01:41:03.679Z,9.63
2023-01-19T01:43:44.980Z,9.70
2023-01-19T01:46:15.603Z,10.70
2023-01-19T01:48:47.974Z,10.40
2023-01-19T01:51:27.415Z,9.80
2023-01-19T01:54:08.266Z,10.27
2023-01-19T01:56:38.876Z,9.93
2023-01-19T01:59:12.473Z,10.30
2023-01-19T02:01:59.527Z,9.80
2023-01-19T02:04:29.495Z,9.63
2023-01-19T02:07:15.602Z,10.17
2023-01-19T02:10:03.134Z,9.20
2023-01-19T02:12:49.019Z,10.20
2023-01-19T02:15:18.714Z,9.40
2023-01-19T02:17:47.354Z,9.67
2023-01-19T02:20:16.204Z,9.90
2023-01-19T02:22:49.263Z,10.40
2023-01-19T02:25:20.600Z,9.40
2023-01-19T02:27:50.427Z,10.47
2023-01-19T02:30:19.844Z,9.30
2023-01-19T02:32:48.241Z,10.87
2023-01-19T02:35:17.227Z,10.67
2023-01-19T02:37:46.222Z,10.73
2023-01-19T02:40:20.079Z,10.07
2023-01-19T02:42:51.764Z,10.47
2023-01-19T02:45:22.954Z,10.30
2023-01-19T02:47:53.543Z,10.47
2023-01-19T02:50:46.583Z,11.17
2023-01-19T02:53:31.214Z,10.47
2023-01-19T02:56:08.458Z,10.10
2023-01-19T02:58:47.372Z,10.60
2023-01-19T03:01:23.233Z,9.83
2023-01-19T03:03:57.157Z,10.27
2023-01-19T03:06:37.336Z,9.60
2023-01-19T03:09:14.172Z,9.57
2023-01-19T03:11:48.429Z,9.50
2023-01-19T03:14:24.311Z,9.73
2023-01-19T03:16:56.367Z,8.93
2023-01-19T03:19:30.213Z,9.73
2023-01-19T03:22:01.084Z,9.30
2023-01-19T03:24:36.889Z,8.63
2023-01-19T03:27:12.578Z,9.00
2023-01-19T03:29:46.413Z,9.37
2023-01-19T03:32:19.370Z,9.47
2023-01-19T03:34:52.617Z,9.17
2023-01-19T03:37:22.760Z,9.27
2023-01-19T03:39:51.730Z,8.97
2023-01-19T03:42:21.618Z,9.57
2023-01-19T03:44:55.471Z,9.87
2023-01-19T03:47:26.594Z,9.70
2023-01-19T03:49:57.029Z,9.57
2023-01-19T03:52:30.327Z,9.30
2023-01-19T03:54:58.735Z,9.27
2023-01-19T03:57:27.178Z,9.97
2023-01-19T03:59:57.027Z,10.23
2023-01-19T04:02:26.033Z,10.97
2023-01-19T04:04:54.319Z,10.07
2023-01-19T04:07:22.642Z,11.20
2023-01-19T04:09:51.122Z,10.20
2023-01-19T04:12:19.351Z,9.97
2023-01-19T04:14:48.697Z,10.20
2023-01-19T04:18:00.919Z,10.40
2023-01-19T04:20:52.812Z,10.57
2023-01-19T04:23:21.363Z,11.33
2023-01-19T04:25:49.589Z,11.50
2023-01-19T04:28:18.249Z,11.37
2023-01-19T04:30:46.543Z,10.83
2023-01-19T04:33:16.092Z,11.57
2023-01-19T04:35:45.700Z,11.47
2023-01-19T04:38:14.115Z,11.17
2023-01-19T04:40:42.494Z,11.27
2023-01-19T04:43:12.442Z,10.93
2023-01-19T04:45:40.849Z,11.33
2023-01-19T04:48:09.489Z,11.37
2023-01-19T04:50:39.741Z,12.50
2023-01-19T04:53:08.115Z,11.40
2023-01-19T04:55:38.168Z,11.90
2023-01-19T04:58:06.507Z,13.40
2023-01-19T05:00:34.879Z,12.50
2023-01-19T05:03:09.258Z,12.53
2023-01-19T05:05:39.506Z,12.00
2023-01-19T05:08:07.865Z,12.87
2023-01-19T05:10:36.638Z,12.67
2023-01-19T05:13:05.719Z,14.00
2023-01-19T05:15:39.550Z,13.37
2023-01-19T05:18:08.249Z,15.10
2023-01-19T05:20:36.437Z,14.97
2023-01-19T05:23:06.412Z,16.07
2023-01-19T05:25:34.863Z,14.97
2023-01-19T05:28:04.039Z,16.80
2023-01-19T05:30:32.395Z,19.20
2023-01-19T05:33:00.963Z,19.93
2023-01-19T05:35:35.533Z,17.23
2023-01-19T05:38:06.467Z,13.37
2023-01-19T05:40:34.652Z,13.43
2023-01-19T05:43:05.321Z,14.00
2023-01-19T05:45:34.301Z,13.83
2023-01-19T05:48:02.768Z,13.57
2023-01-19T05:50:32.849Z,13.87
2023-01-19T05:53:02.133Z,14.03
2023-01-19T05:55:32.605Z,14.17
2023-01-19T05:58:01.504Z,15.47
2023-01-19T06:00:30.404Z,15.30
2023-01-19T06:03:00.857Z,15.17
2023-01-19T06:05:29.383Z,15.73
2023-01-19T06:07:58.383Z,15.70
2023-01-19T06:10:26.630Z,17.60
2023-01-19T06:12:56.377Z,16.93
2023-01-19T06:15:25.083Z,16.13
2023-01-19T06:17:53.656Z,15.03
2023-01-19T06:20:22.102Z,15.33
2023-01-19T06:22:50.963Z,15.53
2023-01-19T06:25:19.240Z,15.30
2023-01-19T06:27:47.518Z,15.13
2023-01-19T06:30:17.801Z,14.97
2023-01-19T06:32:46.023Z,14.23
2023-01-19T06:35:14.608Z,14.47
2023-01-19T06:37:43.181Z,15.30
2023-01-19T06:40:14.502Z,15.40
2023-01-19T06:42:43.133Z,15.30
2023-01-19T06:45:12.153Z,14.43
2023-01-19T06:47:41.771Z,15.27
2023-01-19T06:50:11.432Z,14.67
2023-01-19T06:52:42.536Z,16.30
2023-01-19T06:55:12.556Z,14.77
2023-01-19T06:57:41.044Z,16.17
2023-01-19T07:00:11.839Z,15.63
2023-01-19T07:02:43.731Z,15.60
2023-01-19T07:05:14.529Z,16.07
2023-01-19T07:07:44.853Z,15.37
2023-01-19T07:10:15.894Z,15.93
2023-01-19T07:12:46.570Z,14.87
2023-01-19T07:15:15.357Z,14.57
2023-01-19T07:17:45.632Z,15.40
2023-01-19T07:20:15.176Z,16.23
2023-01-19T07:22:45.739Z,14.90
2023-01-19T07:25:14.384Z,15.37
2023-01-19T07:27:42.800Z,15.70
2023-01-19T07:30:16.348Z,15.73
2023-01-19T07:32:46.256Z,15.07
2023-01-19T07:35:14.528Z,15.10
2023-01-19T07:37:42.994Z,14.93
2023-01-19T07:40:12.504Z,15.53
2023-01-19T07:42:43.035Z,14.97
2023-01-19T07:45:12.051Z,16.33
2023-01-19T07:47:40.392Z,15.83
2023-01-19T07:50:12.436Z,14.73
2023-01-19T07:52:41.070Z,14.63
2023-01-19T07:55:10.295Z,15.27
2023-01-19T07:57:38.558Z,15.47
2023-01-19T08:00:08.864Z,15.53
2023-01-19T08:02:37.910Z,15.43
2023-01-19T08:05:07.142Z,15.60
2023-01-19T08:07:36.914Z,15.63
2023-01-19T08:10:08.373Z,15.77
2023-01-19T08:12:38.634Z,15.83
2023-01-19T08:15:08.152Z,16.77
2023-01-19T08:17:36.917Z,16.23
2023-01-19T08:20:06.699Z,15.70
2023-01-19T08:22:36.659Z,16.03
2023-01-19T08:25:05.373Z,16.50
2023-01-19T08:27:33.682Z,14.47
2023-01-19T08:30:01.994Z,15.00
2023-01-19T08:32:30.260Z,16.53
2023-01-19T08:34:59.038Z,15.20
2023-01-19T08:37:27.398Z,15.30
2023-01-19T08:39:56.980Z,14.80
2023-01-19T08:42:28.176Z,14.37
2023-01-19T08:44:58.346Z,14.70
2023-01-19T08:47:27.289Z,14.47
2023-01-19T08:49:55.548Z,15.00
2023-01-19T08:52:24.760Z,14.10
2023-01-19T08:54:53.069Z,14.53
2023-01-19T08:57:22.830Z,14.93
2023-01-19T08:59:51.108Z,13.50
2023-01-19T09:02:19.693Z,13.87
2023-01-19T09:04:48.084Z,17.47
2023-01-19T09:07:17.557Z,15.23
2023-01-19T09:09:46.026Z,15.53
2023-01-19T09:12:14.851Z,16.80
2023-01-19T09:14:44.437Z,15.63
2023-01-19T09:17:14.655Z,16.03
2023-01-19T09:19:43.061Z,15.07
2023-01-19T09:22:11.456Z,15.70
2023-01-19T09:24:40.135Z,18.87
2023-01-19T09:27:10.649Z,20.37
2023-01-19T09:29:41.840Z,19.03
2023-01-19T09:32:11.928Z,19.80
2023-01-19T09:34:40.424Z,19.57
2023-01-19T09:37:09.071Z,19.27
2023-01-19T09:39:38.112Z,20.40
2023-01-19T09:42:14.872Z,20.87
2023-01-19T09:44:45.866Z,21.07
2023-01-19T09:47:18.177Z,20.07
2023-01-19T09:49:51.644Z,20.67
2023-01-19T09:52:20.680Z,20.77
2023-01-19T09:54:54.817Z,20.20
2023-01-19T09:57:24.336Z,21.47
2023-01-19T09:59:58.043Z,21.97
2023-01-19T10:02:37.123Z,20.33
2023-01-19T10:05:15.548Z,20.53
2023-01-19T10:08:08.617Z,20.67
2023-01-19T10:10:38.095Z,21.53
2023-01-19T10:13:20.518Z,22.67
2023-01-19T10:15:57.661Z,23.73
2023-01-19T10:18:34.686Z,22.13
2023-01-19T10:21:07.780Z,23.00
2023-01-19T10:23:44.222Z,23.73
2023-01-19T10:26:20.062Z,25.67
2023-01-19T10:28:51.922Z,22.67
2023-01-19T10:31:25.185Z,23.13
2023-01-19T10:33:55.473Z,22.70
2023-01-19T10:36:28.984Z,22.10
2023-01-19T10:38:57.504Z,21.30
2023-01-19T10:41:29.307Z,21.47
2023-01-19T10:44:02.259Z,20.23
2023-01-19T10:46:38.179Z,22.83
2023-01-19T10:49:08.740Z,21.53
2023-01-19T10:51:48.782Z,22.50
2023-01-19T10:54:17.790Z,19.57
2023-01-19T10:56:53.032Z,20.17
2023-01-19T10:59:34.210Z,20.23
2023-01-19T11:02:21.404Z,19.70
2023-01-19T11:04:54.395Z,19.33
2023-01-19T11:07:24.651Z,19.53
2023-01-19T11:10:14.512Z,19.50
2023-01-19T11:12:44.106Z,19.20
2023-01-19T11:15:16.929Z,19.17
2023-01-19T11:17:48.373Z,19.20
2023-01-19T11:20:24.062Z,19.00
2023-01-19T11:23:06.543Z,19.87
2023-01-19T11:25:38.001Z,18.30
2023-01-19T11:28:06.818Z,17.70
2023-01-19T11:30:36.670Z,18.23
2023-01-19T11:33:07.332Z,17.60
2023-01-19T11:35:42.243Z,18.03
2023-01-19T11:38:20.258Z,17.33
2023-01-19T11:40:54.602Z,16.90
2023-01-19T11:43:25.597Z,17.17
2023-01-19T11:45:55.250Z,17.33
2023-01-19T11:48:30.497Z,17.23
2023-01-19T11:51:03.684Z,17.70
2023-01-19T11:53:35.228Z,16.03
2023-01-19T11:56:07.029Z,17.07
2023-01-19T11:58:43.302Z,17.47
2023-01-19T12:01:21.287Z,17.87
2023-01-19T12:03:56.395Z,17.23
2023-01-19T12:06:30.939Z,15.97
2023-01-19T12:09:03.132Z,16.90
2023-01-19T12:11:34.422Z,16.83
2023-01-19T12:14:04.203Z,16.03
2023-01-19T12:16:34.720Z,17.10
2023-01-19T12:19:05.493Z,17.33
2023-01-19T12:21:35.206Z,17.83
2023-01-19T12:24:13.691Z,16.17
2023-01-19T12:26:50.551Z,17.07
2023-01-19T12:29:22.071Z,17.43
2023-01-19T12:32:21.130Z,16.80
2023-01-19T12:34:52.176Z,16.33
2023-01-19T12:37:41.763Z,16.27
2023-01-19T12:40:26.098Z,16.17
2023-01-19T12:43:01.821Z,16.97
2023-01-19T12:45:34.760Z,16.20
2023-01-19T12:48:05.085Z,16.57
2023-01-19T12:50:37.991Z,16.03
2023-01-19T12:53:18.036Z,16.30
2023-01-19T12:55:47.646Z,16.00
2023-01-19T12:58:19.089Z,16.00
2023-01-19T13:00:49.288Z,16.20
2023-01-19T13:03:47.234Z,16.83
2023-01-19T13:06:15.462Z,15.23
2023-01-19T13:09:02.090Z,17.23
2023-01-19T13:11:34.309Z,15.63
2023-01-19T13:14:35.602Z,16.60
2023-01-19T13:17:22.369Z,16.50
2023-01-19T13:20:02.207Z,15.83
2023-01-19T13:23:18.678Z,15.83
2023-01-19T13:25:53.225Z,16.47
2023-01-19T13:28:36.146Z,15.73
2023-01-19T13:31:05.309Z,15.97
2023-01-19T13:33:43.314Z,16.10
2023-01-19T13:36:26.253Z,15.80
2023-01-19T13:38:55.947Z,15.07
2023-01-19T13:41:29.759Z,15.23
2023-01-19T13:44:02.875Z,15.90
2023-01-19T13:46:33.335Z,15.90
2023-01-19T13:49:05.449Z,15.23
2023-01-19T13:51:33.815Z,15.77
2023-01-19T13:54:02.892Z,16.63
2023-01-19T13:56:32.936Z,15.87
2023-01-19T13:59:12.681Z,14.70
2023-01-19T14:01:43.670Z,16.73
2023-01-19T14:04:31.762Z,15.60
2023-01-19T14:07:02.672Z,15.87
2023-01-19T14:09:31.351Z,14.67
2023-01-19T14:12:14.541Z,15.50
2023-01-19T14:14:44.101Z,15.63
2023-01-19T14:17:27.758Z,15.53
2023-01-19T14:19:57.997Z,14.30
2023-01-19T14:22:43.140Z,16.67
2023-01-19T14:25:29.161Z,15.60
2023-01-19T14:28:39.378Z,16.20
2023-01-19T14:31:21.926Z,15.77
2023-01-19T14:33:52.089Z,15.97
2023-01-19T14:36:34.223Z,15.07
2023-01-19T14:39:04.059Z,15.33
2023-01-19T14:41:39.017Z,15.37
2023-01-19T14:44:12.380Z,14.17
2023-01-19T14:46:52.050Z,14.10
2023-01-19T14:49:25.785Z,14.10
2023-01-19T14:51:54.092Z,14.10
2023-01-19T14:54:31.054Z,13.37
2023-01-19T14:56:59.311Z,13.77
2023-01-19T14:59:28.958Z,13.40
2023-01-19T15:01:57.810Z,14.87
2023-01-19T15:04:26.376Z,13.70
2023-01-19T15:06:59.493Z,15.07
2023-01-19T15:09:27.944Z,14.43
2023-01-19T15:11:56.696Z,14.10
2023-01-19T15:14:25.366Z,14.37
2023-01-19T15:16:55.460Z,14.17
2023-01-19T15:19:23.741Z,14.70
2023-01-19T15:21:52.447Z,14.20
2023-01-19T15:24:21.151Z,14.90
2023-01-19T15:26:49.456Z,14.43
2023-01-19T15:29:23.469Z,15.70
2023-01-19T15:31:51.984Z,15.27
2023-01-19T15:34:21.672Z,14.33
2023-01-19T15:36:50.316Z,14.43
2023-01-19T15:39:18.689Z,14.80
2023-01-19T15:41:47.024Z,14.93
2023-01-19T15:44:15.692Z,15.87
2023-01-19T15:46:46.150Z,16.33
2023-01-19T15:49:15.457Z,16.07
2023-01-19T15:51:45.727Z,14.93
2023-01-19T15:54:15.411Z,15.57
2023-01-19T15:56:43.840Z,15.13
2023-01-19T15:59:12.328Z,15.57
2023-01-19T16:01:41.773Z,15.47
2023-01-19T16:04:11.873Z,15.93
2023-01-19T16:06:40.364Z,16.03
2023-01-19T16:09:11.677Z,16.20
2023-01-19T16:11:40.094Z,15.73
2023-01-19T16:14:08.619Z,16.13
2023-01-19T16:16:37.046Z,15.90
2023-01-19T16:19:05.428Z,16.40
2023-01-19T16:21:33.747Z,16.60
2023-01-19T16:24:02.138Z,17.97
2023-01-19T16:26:34.557Z,18.07
2023-01-19T16:29:07.868Z,17.47
2023-01-19T16:31:36.709Z,17.53
2023-01-19T16:34:05.319Z,17.57
2023-01-19T16:36:36.174Z,17.00
2023-01-19T16:39:07.712Z,17.13
2023-01-19T16:41:37.791Z,17.20
2023-01-19T16:44:06.504Z,16.80
2023-01-19T16:46:37.522Z,19.00
2023-01-19T16:49:08.601Z,16.50
2023-01-19T16:51:36.799Z,17.90
2023-01-19T16:54:05.320Z,20.40
2023-01-19T16:56:33.820Z,20.27
2023-01-19T16:59:03.406Z,17.83
2023-01-19T17:01:31.820Z,17.97
2023-01-19T17:04:01.370Z,17.33
2023-01-19T17:06:30.217Z,18.57
2023-01-19T17:08:58.877Z,18.73
2023-01-19T17:11:28.902Z,17.23
2023-01-19T17:14:00.467Z,16.57
2023-01-19T17:16:32.027Z,17.23
2023-01-19T17:19:02.356Z,17.27
2023-01-19T17:21:31.204Z,18.67
2023-01-19T17:24:00.131Z,18.27
2023-01-19T17:26:31.134Z,18.57
2023-01-19T17:29:00.356Z,18.13
2023-01-19T17:31:32.234Z,18.20
2023-01-19T17:34:01.656Z,17.87
2023-01-19T17:36:31.489Z,19.13
2023-01-19T17:39:01.397Z,17.87
2023-01-19T17:41:31.946Z,18.23
2023-01-19T17:44:01.855Z,17.37
2023-01-19T17:46:31.961Z,18.33
2023-01-19T17:49:01.888Z,17.73
2023-01-19T17:51:31.174Z,17.83
2023-01-19T17:54:00.423Z,17.60
2023-01-19T17:56:33.111Z,17.33
2023-01-19T17:59:01.553Z,17.13
2023-01-19T18:01:33.399Z,15.73
2023-01-19T18:04:02.680Z,17.90
2023-01-19T18:06:30.983Z,16.67
2023-01-19T18:08:59.894Z,17.47
2023-01-19T18:11:28.784Z,16.87
2023-01-19T18:13:57.247Z,17.13
2023-01-19T18:16:27.598Z,17.70
2023-01-19T18:18:58.561Z,17.90
2023-01-19T18:21:29.001Z,18.13
2023-01-19T18:24:02.159Z,17.37
2023-01-19T18:26:32.262Z,17.93
2023-01-19T18:29:00.682Z,17.53
2023-01-19T18:31:29.297Z,17.80
2023-01-19T18:33:59.165Z,19.17
2023-01-19T18:36:27.591Z,18.60
2023-01-19T18:38:55.888Z,19.63
2023-01-19T18:41:24.265Z,26.10
2023-01-19T18:43:54.562Z,20.23
2023-01-19T18:46:22.867Z,20.03
2023-01-19T18:48:51.990Z,20.00
2023-01-19T18:51:21.707Z,19.53
2023-01-19T18:53:49.967Z,20.50
2023-01-19T18:56:18.468Z,19.37
2023-01-19T18:58:47.296Z,19.67
2023-01-19T19:01:21.609Z,19.67
2023-01-19T19:03:50.098Z,20.40
2023-01-19T19:06:20.682Z,21.03
2023-01-19T19:08:51.831Z,22.63
2023-01-19T19:11:21.190Z,21.90
2023-01-19T19:13:54.121Z,20.73
2023-01-19T19:16:22.405Z,20.80
2023-01-19T19:18:51.098Z,20.10
2023-01-19T19:21:24.103Z,19.63
2023-01-19T19:23:55.541Z,21.43
2023-01-19T19:26:25.242Z,21.87
2023-01-19T19:28:53.407Z,21.07
2023-01-19T19:31:25.587Z,22.03
2023-01-19T19:33:54.736Z,21.83
2023-01-19T19:36:24.602Z,23.97
2023-01-19T19:38:54.529Z,23.67
2023-01-19T19:41:24.810Z,23.17
2023-01-19T19:43:53.084Z,23.90
2023-01-19T19:46:24.426Z,24.33
2023-01-19T19:48:53.573Z,23.87
2023-01-19T19:51:23.754Z,24.03
2023-01-19T19:53:54.505Z,25.80
2023-01-19T19:56:24.342Z,26.37
2023-01-19T19:58:55.058Z,26.73
2023-01-19T20:01:27.300Z,28.13
2023-01-19T20:03:57.381Z,30.27
2023-01-19T20:06:27.712Z,31.07
2023-01-19T20:08:58.058Z,30.70
2023-01-19T20:11:28.787Z,29.83
2023-01-19T20:13:57.221Z,30.37
2023-01-19T20:16:25.923Z,31.57
2023-01-19T20:18:55.287Z,32.10
2023-01-19T20:21:26.122Z,29.90
2023-01-19T20:23:57.824Z,30.77
2023-01-19T20:26:28.344Z,31.07
2023-01-19T20:29:00.153Z,29.53
2023-01-19T20:31:30.295Z,31.00
2023-01-19T20:34:01.838Z,29.60
2023-01-19T20:36:30.206Z,29.47
2023-01-19T20:39:00.339Z,27.33
2023-01-19T20:41:30.157Z,28.80
2023-01-19T20:43:58.521Z,29.57
2023-01-19T20:46:26.811Z,28.93
2023-01-19T20:48:55.360Z,26.10
2023-01-19T20:51:25.797Z,25.00
2023-01-19T20:53:54.193Z,25.27
2023-01-19T20:56:24.055Z,23.00
2023-01-19T20:58:52.341Z,22.07
2023-01-19T21:01:23.560Z,23.00
2023-01-19T21:03:53.083Z,21.33
2023-01-19T21:06:22.570Z,21.57
2023-01-19T21:08:50.815Z,20.90
2023-01-19T21:11:20.948Z,21.37
2023-01-19T21:13:55.393Z,20.60
2023-01-19T21:16:24.854Z,20.30
2023-01-19T21:18:53.632Z,20.33
2023-01-19T21:21:30.388Z,19.03
2023-01-19T21:24:00.907Z,20.57
2023-01-19T21:26:30.940Z,19.33
2023-01-19T21:29:02.040Z,21.07
2023-01-19T21:31:32.791Z,20.63
2023-01-19T21:34:01.271Z,19.87
2023-01-19T21:36:29.696Z,21.10
2023-01-19T21:39:00.756Z,20.10
2023-01-19T21:41:31.492Z,20.80
2023-01-19T21:44:01.607Z,18.93
2023-01-19T21:46:32.199Z,21.27
2023-01-19T21:49:01.988Z,21.67
2023-01-19T21:51:33.772Z,21.37
2023-01-19T21:54:02.925Z,21.57
2023-01-19T21:56:31.807Z,21.00
2023-01-19T21:59:03.744Z,20.47
2023-01-19T22:01:33.124Z,20.93
2023-01-19T22:04:01.589Z,22.07
2023-01-19T22:06:30.543Z,21.30
2023-01-19T22:09:00.622Z,21.53
2023-01-19T22:11:30.103Z,22.77
2023-01-19T22:13:59.718Z,20.30
2023-01-19T22:16:30.564Z,21.43
2023-01-19T22:19:04.147Z,21.33
2023-01-19T22:21:34.083Z,21.10
2023-01-19T22:24:04.599Z,21.80
2023-01-19T22:26:34.387Z,22.23
2023-01-19T22:29:04.812Z,22.23
2023-01-19T22:31:34.988Z,22.17
2023-01-19T22:34:03.422Z,23.40
2023-01-19T22:36:34.057Z,22.40
2023-01-19T22:39:05.161Z,23.07
2023-01-19T22:41:35.296Z,21.43
2023-01-19T22:44:06.041Z,22.23
2023-01-19T22:46:38.032Z,23.47
2023-01-19T22:49:08.350Z,24.53
2023-01-19T22:51:37.517Z,23.57
2023-01-19T22:54:06.142Z,23.27
2023-01-19T22:56:35.847Z,24.17
2023-01-19T22:59:05.917Z,23.40
2023-01-19T23:01:38.883Z,24.33
2023-01-19T23:04:09.436Z,24.73
2023-01-19T23:06:39.456Z,23.00
2023-01-19T23:09:12.087Z,23.93
2023-01-19T23:11:43.530Z,24.33
2023-01-19T23:14:15.059Z,23.07
2023-01-19T23:16:45.251Z,24.97
2023-01-19T23:19:14.031Z,23.90
2023-01-19T23:21:42.661Z,23.43
2023-01-19T23:24:11.869Z,24.43
2023-01-19T23:26:40.344Z,24.13
2023-01-19T23:29:11.312Z,24.03
2023-01-19T23:31:46.103Z,23.40
2023-01-19T23:34:17.008Z,22.87
2023-01-19T23:36:45.938Z,23.23
2023-01-19T23:39:15.989Z,21.83
2023-01-19T23:41:44.343Z,23.83
2023-01-19T23:44:17.323Z,24.07
2023-01-19T23:46:47.202Z,23.30
2023-01-19T23:49:18.333Z,23.07
2023-01-19T23:51:46.610Z,25.03
2023-01-19T23:54:14.795Z,23.07
2023-01-19T23:56:43.343Z,23.50
2023-01-19T23:59:13.226Z,24.23
